GEC8715 EDDF-OMDB
Flight info
| Callsign | GEC8715 |
|---|---|
| Flight time | 5h 43m |
| Altitude | 31000 |
| Route | SULUS7S/18 SULUS Z650 VEMUT DCT BUDEX DCT TEGRI DCT ARTAT/N0485F330 UP975 EZS UG8 OTKEP UM688 RATVO M688 SISIN/N0492F350 M688 SIDAD P975 SESRU M677 VUTEB |
| Aircraft | MD11/H-SDE1E2E3FGHIJ2J3J4J5M1RWXY/LB1D1 |
Departure
| Time | 2026-05-05 15:28 |
|---|---|
| Airport | Frankfurt Main Airport (EDDF) |
Arrival
| Time | 2026-05-05 21:12 |
|---|---|
| Airport | Dubai International Airport (OMDB) |
| Time | Latitude | Longitude | Altitude | Speed | Heading |
|---|---|---|---|---|---|
| 2026-05-05 14:56 | 50.04070 | 8.54508 | 369 ft | 0 kts | 249° |
| 2026-05-05 15:18 | 50.04073 | 8.54523 | 369 ft | 2 kts | 251° |
| 2026-05-05 15:19 | 50.04077 | 8.54546 | 369 ft | 2 kts | 257° |
| 2026-05-05 15:19 | 50.04081 | 8.54569 | 369 ft | 2 kts | 256° |
| 2026-05-05 15:19 | 50.04084 | 8.54589 | 369 ft | 1 kts | 257° |
| 2026-05-05 15:19 | 50.04085 | 8.54605 | 369 ft | 0 kts | 278° |
| 2026-05-05 15:20 | 50.04085 | 8.54618 | 369 ft | 1 kts | 234° |
| 2026-05-05 15:20 | 50.04092 | 8.54626 | 369 ft | 1 kts | 181° |
| 2026-05-05 15:20 | 50.04098 | 8.54624 | 369 ft | 1 kts | 158° |
| 2026-05-05 15:20 | 50.04101 | 8.54622 | 369 ft | 0 kts | 159° |
| 2026-05-05 15:23 | 50.04099 | 8.54623 | 369 ft | 1 kts | 159° |
| 2026-05-05 15:23 | 50.04075 | 8.54637 | 369 ft | 6 kts | 161° |
| 2026-05-05 15:24 | 50.04011 | 8.54671 | 369 ft | 13 kts | 161° |
| 2026-05-05 15:24 | 50.03947 | 8.54673 | 369 ft | 10 kts | 224° |
| 2026-05-05 15:24 | 50.03906 | 8.54548 | 369 ft | 16 kts | 251° |
| 2026-05-05 15:24 | 50.03856 | 8.54360 | 369 ft | 21 kts | 238° |
| 2026-05-05 15:25 | 50.03779 | 8.54132 | 369 ft | 25 kts | 250° |
| 2026-05-05 15:25 | 50.03708 | 8.53840 | 369 ft | 31 kts | 249° |
| 2026-05-05 15:25 | 50.03630 | 8.53515 | 369 ft | 33 kts | 250° |
| 2026-05-05 15:25 | 50.03543 | 8.53152 | 369 ft | 37 kts | 250° |
| 2026-05-05 15:26 | 50.03458 | 8.52807 | 369 ft | 26 kts | 250° |
| 2026-05-05 15:26 | 50.03375 | 8.52608 | 369 ft | 20 kts | 200° |
| 2026-05-05 15:26 | 50.03313 | 8.52600 | 368 ft | 0 kts | 180° |
| 2026-05-05 15:26 | 50.03272 | 8.52600 | 368 ft | 24 kts | 180° |
| 2026-05-05 15:27 | 50.02890 | 8.52601 | 368 ft | 84 kts | 180° |
| 2026-05-05 15:27 | 50.02108 | 8.52614 | 368 ft | 138 kts | 180° |
| 2026-05-05 15:27 | 50.01024 | 8.52618 | 369 ft | 170 kts | 182° |
| 2026-05-05 15:27 | 49.99766 | 8.52609 | 439 ft | 186 kts | 182° |
| 2026-05-05 15:28 | 49.98476 | 8.52608 | 661 ft | 188 kts | 182° |
| 2026-05-05 15:28 | 49.97155 | 8.52690 | 983 ft | 191 kts | 170° |
| 2026-05-05 15:28 | 49.96038 | 8.53730 | 1708 ft | 192 kts | 128° |
| 2026-05-05 15:28 | 49.95324 | 8.55566 | 2296 ft | 205 kts | 118° |
| 2026-05-05 15:29 | 49.94698 | 8.57558 | 3115 ft | 203 kts | 118° |
| 2026-05-05 15:29 | 49.94129 | 8.59588 | 3648 ft | 214 kts | 109° |
| 2026-05-05 15:29 | 49.93837 | 8.61988 | 3796 ft | 243 kts | 95° |
| 2026-05-05 15:29 | 49.93759 | 8.64852 | 3976 ft | 277 kts | 92° |
| 2026-05-05 15:30 | 49.93570 | 8.67859 | 4494 ft | 292 kts | 107° |
| 2026-05-05 15:30 | 49.92685 | 8.70684 | 5374 ft | 290 kts | 132° |
| 2026-05-05 15:30 | 49.91213 | 8.72780 | 6260 ft | 290 kts | 147° |
| 2026-05-05 15:30 | 49.89584 | 8.74549 | 7182 ft | 291 kts | 143° |
| 2026-05-05 15:31 | 49.88139 | 8.76672 | 8094 ft | 294 kts | 130° |
| 2026-05-05 15:31 | 49.86979 | 8.79344 | 9004 ft | 298 kts | 122° |
| 2026-05-05 15:31 | 49.85973 | 8.82161 | 9848 ft | 302 kts | 121° |
| 2026-05-05 15:31 | 49.84943 | 8.85032 | 10528 ft | 313 kts | 122° |
| 2026-05-05 15:32 | 49.83837 | 8.88075 | 10766 ft | 339 kts | 122° |
| 2026-05-05 15:32 | 49.82653 | 8.91325 | 10905 ft | 367 kts | 121° |
| 2026-05-05 15:32 | 49.81359 | 8.94882 | 11153 ft | 391 kts | 121° |
| 2026-05-05 15:32 | 49.80000 | 8.98633 | 11475 ft | 410 kts | 121° |
| 2026-05-05 15:33 | 49.78587 | 9.02548 | 12294 ft | 416 kts | 121° |
| 2026-05-05 15:33 | 49.77195 | 9.06522 | 13152 ft | 421 kts | 118° |
| 2026-05-05 15:33 | 49.76049 | 9.10674 | 14031 ft | 425 kts | 110° |
| 2026-05-05 15:33 | 49.75225 | 9.15102 | 14812 ft | 432 kts | 106° |
| 2026-05-05 15:34 | 49.74524 | 9.19601 | 15596 ft | 437 kts | 105° |
| 2026-05-05 15:34 | 49.73792 | 9.24198 | 16376 ft | 441 kts | 106° |
| 2026-05-05 15:34 | 49.73045 | 9.28740 | 17152 ft | 445 kts | 106° |
| 2026-05-05 15:34 | 49.72283 | 9.33330 | 17888 ft | 450 kts | 106° |
| 2026-05-05 15:35 | 49.71513 | 9.37975 | 18656 ft | 454 kts | 106° |
| 2026-05-05 15:35 | 49.70733 | 9.42699 | 19423 ft | 458 kts | 106° |
| 2026-05-05 15:35 | 49.69943 | 9.47494 | 20181 ft | 461 kts | 105° |
| 2026-05-05 15:35 | 49.69159 | 9.52281 | 20896 ft | 465 kts | 105° |
| 2026-05-05 15:36 | 49.68362 | 9.57158 | 21577 ft | 470 kts | 105° |
| 2026-05-05 15:36 | 49.67691 | 9.62080 | 22264 ft | 475 kts | 99° |
| 2026-05-05 15:36 | 49.67474 | 9.67187 | 22938 ft | 482 kts | 91° |
| 2026-05-05 15:36 | 49.67792 | 9.72358 | 23563 ft | 489 kts | 82° |
| 2026-05-05 15:37 | 49.68582 | 9.77513 | 24226 ft | 495 kts | 77° |
| 2026-05-05 15:37 | 49.69532 | 9.82676 | 24854 ft | 501 kts | 77° |
| 2026-05-05 15:37 | 49.70507 | 9.87833 | 25527 ft | 504 kts | 77° |
| 2026-05-05 15:37 | 49.71651 | 9.92928 | 26148 ft | 511 kts | 70° |
| 2026-05-05 15:38 | 49.73269 | 9.97922 | 26785 ft | 518 kts | 62° |
| 2026-05-05 15:38 | 49.75230 | 10.02502 | 27663 ft | 519 kts | 57° |
| 2026-05-05 15:38 | 49.77346 | 10.07038 | 28613 ft | 517 kts | 57° |
| 2026-05-05 15:38 | 49.79446 | 10.11500 | 29634 ft | 513 kts | 57° |
| 2026-05-05 15:39 | 49.81528 | 10.16007 | 30551 ft | 511 kts | 58° |
| 2026-05-05 15:39 | 49.83601 | 10.20561 | 30877 ft | 520 kts | 58° |
| 2026-05-05 15:39 | 49.85672 | 10.25138 | 30944 ft | 515 kts | 58° |
| 2026-05-05 15:40 | 49.89701 | 10.34073 | 31012 ft | 504 kts | 58° |
| 2026-05-05 15:40 | 49.93747 | 10.42974 | 30974 ft | 505 kts | 57° |
| 2026-05-05 15:41 | 49.97811 | 10.51887 | 30982 ft | 508 kts | 57° |
| 2026-05-05 15:41 | 50.01743 | 10.60986 | 30948 ft | 504 kts | 64° |
| 2026-05-05 15:42 | 50.04231 | 10.70869 | 31001 ft | 497 kts | 81° |
| 2026-05-05 15:42 | 50.04881 | 10.81395 | 30975 ft | 489 kts | 96° |
| 2026-05-05 15:43 | 50.03701 | 10.91549 | 30954 ft | 481 kts | 111° |
| 2026-05-05 15:43 | 50.01532 | 11.01369 | 30963 ft | 481 kts | 112° |
| 2026-05-05 15:44 | 49.99379 | 11.11124 | 30930 ft | 483 kts | 111° |
| 2026-05-05 15:44 | 49.97267 | 11.21099 | 30955 ft | 485 kts | 111° |
| 2026-05-05 15:45 | 49.95141 | 11.31050 | 30944 ft | 486 kts | 111° |
| 2026-05-05 15:45 | 49.93050 | 11.40993 | 30959 ft | 488 kts | 110° |
| 2026-05-05 15:46 | 49.91150 | 11.51068 | 30951 ft | 491 kts | 108° |
| 2026-05-05 15:46 | 49.89344 | 11.61228 | 30942 ft | 491 kts | 107° |
| 2026-05-05 15:47 | 49.87878 | 11.71421 | 30940 ft | 494 kts | 102° |
| 2026-05-05 15:47 | 49.86926 | 11.81920 | 30938 ft | 496 kts | 100° |
| 2026-05-05 15:48 | 49.85995 | 11.92413 | 30935 ft | 497 kts | 100° |
| 2026-05-05 15:48 | 49.85036 | 12.02978 | 30928 ft | 496 kts | 100° |
| 2026-05-05 15:49 | 49.84065 | 12.13466 | 30924 ft | 496 kts | 100° |
| 2026-05-05 15:49 | 49.83091 | 12.24151 | 30908 ft | 499 kts | 99° |
| 2026-05-05 15:50 | 49.82125 | 12.34594 | 30929 ft | 498 kts | 100° |
| 2026-05-05 15:50 | 49.80671 | 12.44941 | 30924 ft | 494 kts | 111° |
| 2026-05-05 15:51 | 49.77580 | 12.54299 | 30968 ft | 490 kts | 126° |
| 2026-05-05 15:51 | 49.73634 | 12.62781 | 30948 ft | 488 kts | 128° |
| 2026-05-05 15:52 | 49.69687 | 12.71172 | 30911 ft | 488 kts | 128° |
| 2026-05-05 15:52 | 49.65780 | 12.79708 | 30928 ft | 489 kts | 127° |
| 2026-05-05 15:53 | 49.61884 | 12.88246 | 30912 ft | 489 kts | 127° |
| 2026-05-05 15:53 | 49.57951 | 12.96831 | 30923 ft | 491 kts | 127° |
| 2026-05-05 15:54 | 49.54047 | 13.05397 | 30913 ft | 492 kts | 127° |
| 2026-05-05 15:54 | 49.50097 | 13.14089 | 30910 ft | 493 kts | 127° |
| 2026-05-05 15:55 | 49.46170 | 13.22726 | 30909 ft | 494 kts | 127° |
| 2026-05-05 15:55 | 49.42237 | 13.31396 | 30914 ft | 494 kts | 127° |
| 2026-05-05 15:56 | 49.38346 | 13.39999 | 30914 ft | 494 kts | 127° |
| 2026-05-05 15:56 | 49.34406 | 13.48705 | 30916 ft | 495 kts | 127° |
| 2026-05-05 15:57 | 49.30484 | 13.57405 | 30925 ft | 496 kts | 126° |
| 2026-05-05 15:57 | 49.26477 | 13.66037 | 30925 ft | 500 kts | 129° |
| 2026-05-05 15:58 | 49.22390 | 13.74608 | 30918 ft | 500 kts | 128° |
| 2026-05-05 15:58 | 49.18301 | 13.83262 | 30918 ft | 500 kts | 128° |
| 2026-05-05 15:59 | 49.14244 | 13.91902 | 30923 ft | 501 kts | 128° |
| 2026-05-05 15:59 | 49.10171 | 14.00553 | 30923 ft | 503 kts | 128° |
| 2026-05-05 16:00 | 49.06086 | 14.09257 | 30910 ft | 503 kts | 128° |
| 2026-05-05 16:00 | 49.02034 | 14.17915 | 30922 ft | 504 kts | 127° |
| 2026-05-05 16:01 | 48.97980 | 14.26586 | 30916 ft | 506 kts | 127° |
| 2026-05-05 16:01 | 48.94169 | 14.35585 | 30903 ft | 506 kts | 121° |
| 2026-05-05 16:02 | 48.90836 | 14.44987 | 30922 ft | 507 kts | 119° |
| 2026-05-05 16:02 | 48.87473 | 14.54438 | 30903 ft | 507 kts | 120° |
| 2026-05-05 16:03 | 48.84110 | 14.63754 | 30911 ft | 506 kts | 120° |
| 2026-05-05 16:03 | 48.80738 | 14.73086 | 30902 ft | 506 kts | 120° |
| 2026-05-05 16:04 | 48.77374 | 14.82423 | 30922 ft | 506 kts | 120° |
| 2026-05-05 16:04 | 48.74010 | 14.91792 | 30917 ft | 505 kts | 120° |
| 2026-05-05 16:05 | 48.70668 | 15.01119 | 30925 ft | 505 kts | 120° |
| 2026-05-05 16:05 | 48.67313 | 15.10514 | 30915 ft | 505 kts | 120° |
| 2026-05-05 16:06 | 48.63975 | 15.19898 | 30929 ft | 507 kts | 120° |
| 2026-05-05 16:06 | 48.60661 | 15.29248 | 30930 ft | 506 kts | 119° |
| 2026-05-05 16:07 | 48.57335 | 15.38649 | 30915 ft | 506 kts | 119° |
| 2026-05-05 16:07 | 48.54026 | 15.48025 | 30927 ft | 507 kts | 119° |
| 2026-05-05 16:08 | 48.50674 | 15.57385 | 30910 ft | 507 kts | 121° |
| 2026-05-05 16:08 | 48.47179 | 15.66619 | 30921 ft | 508 kts | 122° |
| 2026-05-05 16:09 | 48.43682 | 15.75859 | 30898 ft | 507 kts | 121° |
| 2026-05-05 16:09 | 48.40205 | 15.85110 | 30906 ft | 509 kts | 121° |
| 2026-05-05 16:10 | 48.36749 | 15.94343 | 30902 ft | 508 kts | 121° |
| 2026-05-05 16:10 | 48.33289 | 16.03612 | 30891 ft | 508 kts | 121° |
| 2026-05-05 16:11 | 48.29822 | 16.12925 | 30922 ft | 511 kts | 120° |
| 2026-05-05 16:12 | 48.22910 | 16.31556 | 30938 ft | 511 kts | 120° |
| 2026-05-05 16:13 | 48.14318 | 16.54831 | 30930 ft | 512 kts | 120° |
| 2026-05-05 16:13 | 48.10852 | 16.64217 | 30924 ft | 513 kts | 120° |
| 2026-05-05 16:14 | 48.03646 | 16.82550 | 30939 ft | 514 kts | 122° |
| 2026-05-05 16:15 | 47.96424 | 17.01024 | 30944 ft | 514 kts | 121° |
| 2026-05-05 16:16 | 47.89256 | 17.19488 | 30955 ft | 515 kts | 121° |
| 2026-05-05 16:17 | 47.83901 | 17.33329 | 30957 ft | 513 kts | 121° |
| 2026-05-05 16:18 | 47.78570 | 17.47154 | 30973 ft | 513 kts | 120° |
| 2026-05-05 16:19 | 47.73262 | 17.60963 | 30973 ft | 513 kts | 120° |
| 2026-05-05 16:19 | 47.67931 | 17.74681 | 30983 ft | 513 kts | 122° |
| 2026-05-05 16:20 | 47.60504 | 17.92802 | 31005 ft | 514 kts | 122° |
| 2026-05-05 16:22 | 47.51328 | 18.15433 | 31012 ft | 512 kts | 122° |
| 2026-05-05 16:23 | 47.44040 | 18.33502 | 31021 ft | 512 kts | 122° |
| 2026-05-05 16:23 | 47.38602 | 18.47036 | 31022 ft | 512 kts | 121° |
| 2026-05-05 16:24 | 47.34965 | 18.56108 | 31026 ft | 511 kts | 121° |
| 2026-05-05 16:25 | 47.29549 | 18.69656 | 31025 ft | 511 kts | 122° |
| 2026-05-05 16:25 | 47.24048 | 18.83086 | 31019 ft | 512 kts | 123° |
| 2026-05-05 16:26 | 47.16497 | 19.00834 | 31035 ft | 513 kts | 123° |
| 2026-05-05 16:27 | 47.12720 | 19.09787 | 31037 ft | 513 kts | 123° |
| 2026-05-05 16:27 | 47.08971 | 19.18705 | 31038 ft | 513 kts | 122° |
| 2026-05-05 16:28 | 47.05242 | 19.27591 | 31019 ft | 507 kts | 122° |
| 2026-05-05 16:28 | 47.01557 | 19.36388 | 31032 ft | 507 kts | 122° |
| 2026-05-05 16:29 | 46.97865 | 19.45220 | 31039 ft | 506 kts | 122° |
| 2026-05-05 16:29 | 46.94212 | 19.53976 | 31028 ft | 505 kts | 122° |
| 2026-05-05 16:30 | 46.90543 | 19.62786 | 31038 ft | 505 kts | 122° |
| 2026-05-05 16:30 | 46.86897 | 19.71555 | 31028 ft | 505 kts | 122° |
| 2026-05-05 16:31 | 46.83226 | 19.80385 | 31020 ft | 505 kts | 123° |
| 2026-05-05 16:31 | 46.79456 | 19.89005 | 31023 ft | 505 kts | 124° |
| 2026-05-05 16:32 | 46.75662 | 19.97579 | 31029 ft | 506 kts | 123° |
| 2026-05-05 16:32 | 46.71858 | 20.06238 | 31022 ft | 505 kts | 123° |
| 2026-05-05 16:33 | 46.68092 | 20.14852 | 31029 ft | 506 kts | 123° |
| 2026-05-05 16:33 | 46.64309 | 20.23523 | 31029 ft | 506 kts | 123° |
| 2026-05-05 16:34 | 46.60556 | 20.32139 | 31031 ft | 506 kts | 123° |
| 2026-05-05 16:34 | 46.56802 | 20.40779 | 31034 ft | 506 kts | 122° |
| 2026-05-05 16:35 | 46.53033 | 20.49462 | 31037 ft | 506 kts | 122° |
| 2026-05-05 16:35 | 46.49305 | 20.58071 | 31039 ft | 506 kts | 122° |
| 2026-05-05 16:36 | 46.45563 | 20.66726 | 31042 ft | 507 kts | 123° |
| 2026-05-05 16:36 | 46.41814 | 20.75409 | 31030 ft | 508 kts | 122° |
| 2026-05-05 16:37 | 46.38058 | 20.84084 | 31032 ft | 508 kts | 123° |
| 2026-05-05 16:37 | 46.34206 | 20.92641 | 31040 ft | 508 kts | 123° |
| 2026-05-05 16:38 | 46.30352 | 21.01272 | 31039 ft | 510 kts | 123° |
| 2026-05-05 16:38 | 46.26516 | 21.09937 | 31051 ft | 512 kts | 123° |
| 2026-05-05 16:39 | 46.22897 | 21.18839 | 31043 ft | 509 kts | 119° |
| 2026-05-05 16:39 | 46.19413 | 21.27724 | 31058 ft | 510 kts | 120° |
| 2026-05-05 16:40 | 46.15834 | 21.36594 | 31046 ft | 510 kts | 120° |
| 2026-05-05 16:40 | 46.12258 | 21.45432 | 31059 ft | 511 kts | 120° |
| 2026-05-05 16:41 | 46.08698 | 21.54250 | 31050 ft | 509 kts | 119° |
| 2026-05-05 16:41 | 46.05139 | 21.63095 | 31057 ft | 509 kts | 119° |
| 2026-05-05 16:42 | 46.01605 | 21.71900 | 31058 ft | 508 kts | 120° |
| 2026-05-05 16:42 | 45.98079 | 21.80724 | 31066 ft | 507 kts | 120° |
| 2026-05-05 16:43 | 45.94575 | 21.89508 | 31071 ft | 509 kts | 119° |
| 2026-05-05 16:43 | 45.91061 | 21.98334 | 31070 ft | 508 kts | 119° |
| 2026-05-05 16:44 | 45.87559 | 22.07146 | 31073 ft | 510 kts | 119° |
| 2026-05-05 16:44 | 45.84041 | 22.16018 | 31080 ft | 509 kts | 119° |
| 2026-05-05 16:45 | 45.80438 | 22.24715 | 31085 ft | 509 kts | 120° |
| 2026-05-05 16:45 | 45.76789 | 22.33335 | 31099 ft | 509 kts | 120° |
| 2026-05-05 16:46 | 45.73135 | 22.42025 | 31113 ft | 509 kts | 120° |
| 2026-05-05 16:46 | 45.69481 | 22.50766 | 31142 ft | 510 kts | 119° |
| 2026-05-05 16:47 | 45.65854 | 22.59461 | 31128 ft | 509 kts | 119° |
| 2026-05-05 16:47 | 45.62231 | 22.68165 | 31134 ft | 510 kts | 119° |
| 2026-05-05 16:48 | 45.58610 | 22.76883 | 31125 ft | 511 kts | 119° |
| 2026-05-05 16:48 | 45.54998 | 22.85591 | 31126 ft | 511 kts | 119° |
| 2026-05-05 16:49 | 45.51395 | 22.94299 | 31129 ft | 510 kts | 119° |
| 2026-05-05 16:49 | 45.47804 | 23.02989 | 31118 ft | 511 kts | 118° |
| 2026-05-05 16:50 | 45.44192 | 23.11746 | 31152 ft | 511 kts | 118° |
| 2026-05-05 16:50 | 45.40607 | 23.20421 | 31138 ft | 510 kts | 119° |
| 2026-05-05 16:51 | 45.36870 | 23.29016 | 31172 ft | 511 kts | 120° |
| 2026-05-05 16:51 | 45.33122 | 23.37566 | 31161 ft | 510 kts | 120° |
| 2026-05-05 16:52 | 45.29393 | 23.46144 | 31172 ft | 509 kts | 119° |
| 2026-05-05 16:52 | 45.25661 | 23.54767 | 31178 ft | 510 kts | 119° |
| 2026-05-05 16:53 | 45.21975 | 23.63296 | 31182 ft | 510 kts | 119° |
| 2026-05-05 16:53 | 45.18272 | 23.71876 | 31167 ft | 510 kts | 120° |
| 2026-05-05 16:54 | 45.14587 | 23.80440 | 31177 ft | 511 kts | 119° |
| 2026-05-05 16:54 | 45.10890 | 23.89038 | 31157 ft | 510 kts | 119° |
| 2026-05-05 16:55 | 45.07219 | 23.97593 | 31157 ft | 511 kts | 119° |
| 2026-05-05 16:55 | 45.03528 | 24.06214 | 31151 ft | 510 kts | 118° |
| 2026-05-05 16:56 | 44.99878 | 24.14750 | 31131 ft | 509 kts | 118° |
| 2026-05-05 16:56 | 44.96170 | 24.23315 | 31114 ft | 510 kts | 120° |
| 2026-05-05 16:57 | 44.92356 | 24.31731 | 31122 ft | 510 kts | 120° |
| 2026-05-05 16:57 | 44.88523 | 24.40196 | 31110 ft | 510 kts | 119° |
| 2026-05-05 16:58 | 44.84721 | 24.48657 | 31102 ft | 510 kts | 119° |
| 2026-05-05 16:58 | 44.80964 | 24.57041 | 31113 ft | 511 kts | 119° |
| 2026-05-05 16:59 | 44.77204 | 24.65444 | 31115 ft | 510 kts | 119° |
| 2026-05-05 16:59 | 44.73470 | 24.73807 | 31109 ft | 510 kts | 119° |
| 2026-05-05 17:00 | 44.69695 | 24.82273 | 31112 ft | 510 kts | 119° |
| 2026-05-05 17:00 | 44.65983 | 24.90615 | 31107 ft | 510 kts | 119° |
| 2026-05-05 17:01 | 44.62222 | 24.99076 | 31109 ft | 509 kts | 118° |
| 2026-05-05 17:01 | 44.58470 | 25.07538 | 31113 ft | 510 kts | 118° |
| 2026-05-05 17:02 | 44.54745 | 25.15948 | 31121 ft | 510 kts | 118° |
| 2026-05-05 17:02 | 44.50925 | 25.24363 | 31109 ft | 510 kts | 120° |
| 2026-05-05 17:03 | 44.47028 | 25.32659 | 31121 ft | 511 kts | 120° |
| 2026-05-05 17:03 | 44.43139 | 25.40978 | 31102 ft | 508 kts | 120° |
| 2026-05-05 17:04 | 44.39307 | 25.49233 | 31110 ft | 508 kts | 119° |
| 2026-05-05 17:04 | 44.35459 | 25.57534 | 31113 ft | 508 kts | 119° |
| 2026-05-05 17:05 | 44.31624 | 25.65820 | 31108 ft | 507 kts | 120° |
| 2026-05-05 17:05 | 44.27800 | 25.74101 | 31119 ft | 508 kts | 120° |
| 2026-05-05 17:06 | 44.23965 | 25.82413 | 31106 ft | 507 kts | 119° |
| 2026-05-05 17:06 | 44.20162 | 25.90677 | 31114 ft | 507 kts | 119° |
| 2026-05-05 17:07 | 44.16377 | 25.98905 | 31122 ft | 506 kts | 119° |
| 2026-05-05 17:07 | 44.12580 | 26.07176 | 31116 ft | 504 kts | 119° |
| 2026-05-05 17:08 | 44.08806 | 26.15412 | 31117 ft | 504 kts | 119° |
| 2026-05-05 17:08 | 44.04937 | 26.23559 | 31113 ft | 503 kts | 121° |
| 2026-05-05 17:09 | 44.01047 | 26.31571 | 31117 ft | 503 kts | 121° |
| 2026-05-05 17:09 | 43.97142 | 26.39664 | 31115 ft | 502 kts | 121° |
| 2026-05-05 17:10 | 43.93283 | 26.47708 | 31112 ft | 500 kts | 121° |
| 2026-05-05 17:10 | 43.89439 | 26.55733 | 31120 ft | 500 kts | 121° |
| 2026-05-05 17:11 | 43.85569 | 26.63823 | 31108 ft | 501 kts | 121° |
| 2026-05-05 17:11 | 43.81728 | 26.71865 | 31106 ft | 500 kts | 121° |
| 2026-05-05 17:12 | 43.77907 | 26.79880 | 31116 ft | 499 kts | 122° |
| 2026-05-05 17:12 | 43.74081 | 26.87909 | 31125 ft | 498 kts | 121° |
| 2026-05-05 17:13 | 43.70299 | 26.95870 | 31130 ft | 496 kts | 122° |
| 2026-05-05 17:13 | 43.66515 | 27.03836 | 31128 ft | 496 kts | 122° |
| 2026-05-05 17:14 | 43.62708 | 27.11866 | 31127 ft | 497 kts | 121° |
| 2026-05-05 17:14 | 43.58838 | 27.19736 | 31132 ft | 496 kts | 123° |
| 2026-05-05 17:15 | 43.54930 | 27.27533 | 31132 ft | 495 kts | 123° |
| 2026-05-05 17:15 | 43.51004 | 27.35414 | 31132 ft | 495 kts | 122° |
| 2026-05-05 17:16 | 43.47101 | 27.43297 | 31139 ft | 496 kts | 122° |
| 2026-05-05 17:16 | 43.43239 | 27.51099 | 31130 ft | 495 kts | 122° |
| 2026-05-05 17:17 | 43.39349 | 27.58971 | 31148 ft | 495 kts | 122° |
| 2026-05-05 17:17 | 43.35506 | 27.66763 | 31141 ft | 494 kts | 123° |
| 2026-05-05 17:18 | 43.31656 | 27.74574 | 31149 ft | 493 kts | 122° |
| 2026-05-05 17:18 | 43.27807 | 27.82396 | 31141 ft | 493 kts | 122° |
| 2026-05-05 17:19 | 43.25888 | 27.86300 | 31334 ft | 495 kts | 122° |
| 2026-05-05 17:19 | 43.23964 | 27.90218 | 31861 ft | 493 kts | 122° |
| 2026-05-05 17:19 | 43.22062 | 27.94094 | 32309 ft | 493 kts | 122° |
| 2026-05-05 17:19 | 43.20147 | 27.97997 | 32737 ft | 492 kts | 122° |
| 2026-05-05 17:20 | 43.18248 | 28.01871 | 33148 ft | 492 kts | 122° |
| 2026-05-05 17:20 | 43.16311 | 28.05827 | 33179 ft | 493 kts | 122° |
| 2026-05-05 17:20 | 43.12453 | 28.13458 | 33157 ft | 486 kts | 123° |
| 2026-05-05 17:21 | 43.08525 | 28.21055 | 33186 ft | 489 kts | 123° |
| 2026-05-05 17:22 | 43.02648 | 28.32502 | 33181 ft | 488 kts | 122° |
| 2026-05-05 17:22 | 42.98773 | 28.40089 | 33183 ft | 489 kts | 122° |
| 2026-05-05 17:23 | 42.94867 | 28.47734 | 33184 ft | 490 kts | 122° |
| 2026-05-05 17:23 | 42.90963 | 28.55394 | 33184 ft | 490 kts | 122° |
| 2026-05-05 17:24 | 42.87067 | 28.63049 | 33177 ft | 489 kts | 122° |
| 2026-05-05 17:24 | 42.83195 | 28.70661 | 33178 ft | 490 kts | 122° |
| 2026-05-05 17:25 | 42.79298 | 28.78336 | 33180 ft | 490 kts | 122° |
| 2026-05-05 17:25 | 42.75426 | 28.85975 | 33184 ft | 491 kts | 122° |
| 2026-05-05 17:26 | 42.71559 | 28.93607 | 33189 ft | 492 kts | 122° |
| 2026-05-05 17:26 | 42.67665 | 29.01291 | 33193 ft | 492 kts | 122° |
| 2026-05-05 17:27 | 42.63690 | 29.08851 | 33198 ft | 493 kts | 123° |
| 2026-05-05 17:27 | 42.59678 | 29.16463 | 33202 ft | 492 kts | 122° |
| 2026-05-05 17:28 | 42.55705 | 29.24083 | 33205 ft | 492 kts | 122° |
| 2026-05-05 17:28 | 42.51742 | 29.31660 | 33201 ft | 492 kts | 122° |
| 2026-05-05 17:29 | 42.47769 | 29.39227 | 33177 ft | 492 kts | 122° |
| 2026-05-05 17:29 | 42.43816 | 29.46792 | 33184 ft | 492 kts | 122° |
| 2026-05-05 17:30 | 42.39856 | 29.54433 | 33186 ft | 492 kts | 122° |
| 2026-05-05 17:30 | 42.36520 | 29.62403 | 33216 ft | 487 kts | 110° |
| 2026-05-05 17:31 | 42.34187 | 29.71039 | 33187 ft | 486 kts | 105° |
| 2026-05-05 17:31 | 42.31998 | 29.79654 | 33149 ft | 484 kts | 106° |
| 2026-05-05 17:32 | 42.29739 | 29.88287 | 33179 ft | 487 kts | 106° |
| 2026-05-05 17:32 | 42.27470 | 29.96905 | 33155 ft | 485 kts | 106° |
| 2026-05-05 17:33 | 42.25220 | 30.05469 | 33167 ft | 486 kts | 106° |
| 2026-05-05 17:33 | 42.22970 | 30.14073 | 33164 ft | 486 kts | 106° |
| 2026-05-05 17:34 | 42.20725 | 30.22695 | 33164 ft | 487 kts | 105° |
| 2026-05-05 17:34 | 42.18478 | 30.31352 | 33163 ft | 487 kts | 105° |
| 2026-05-05 17:35 | 42.16255 | 30.39968 | 33166 ft | 487 kts | 105° |
| 2026-05-05 17:35 | 42.14045 | 30.48574 | 33163 ft | 487 kts | 105° |
| 2026-05-05 17:36 | 42.11845 | 30.57162 | 33162 ft | 487 kts | 105° |
| 2026-05-05 17:36 | 42.09640 | 30.65789 | 33163 ft | 487 kts | 105° |
| 2026-05-05 17:37 | 42.07446 | 30.74411 | 33173 ft | 488 kts | 105° |
| 2026-05-05 17:37 | 42.05193 | 30.82999 | 33160 ft | 488 kts | 106° |
| 2026-05-05 17:38 | 42.02873 | 30.91605 | 33168 ft | 489 kts | 106° |
| 2026-05-05 17:38 | 42.00605 | 31.00208 | 33159 ft | 488 kts | 105° |
| 2026-05-05 17:39 | 41.98347 | 31.08784 | 33163 ft | 489 kts | 106° |
| 2026-05-05 17:39 | 41.96016 | 31.17373 | 33163 ft | 489 kts | 106° |
| 2026-05-05 17:40 | 41.93666 | 31.25936 | 33169 ft | 490 kts | 106° |
| 2026-05-05 17:40 | 41.91342 | 31.34519 | 33166 ft | 490 kts | 105° |
| 2026-05-05 17:41 | 41.89012 | 31.43125 | 33155 ft | 491 kts | 105° |
| 2026-05-05 17:41 | 41.86684 | 31.51716 | 33150 ft | 491 kts | 105° |
| 2026-05-05 17:42 | 41.84371 | 31.60305 | 33144 ft | 489 kts | 105° |
| 2026-05-05 17:42 | 41.82042 | 31.68944 | 33151 ft | 492 kts | 106° |
| 2026-05-05 17:43 | 41.79628 | 31.77545 | 33162 ft | 491 kts | 106° |
| 2026-05-05 17:43 | 41.77282 | 31.86152 | 33165 ft | 492 kts | 106° |
| 2026-05-05 17:44 | 41.74894 | 31.94721 | 33171 ft | 493 kts | 106° |
| 2026-05-05 17:44 | 41.72477 | 32.03363 | 33164 ft | 492 kts | 105° |
| 2026-05-05 17:45 | 41.70119 | 32.11912 | 33157 ft | 493 kts | 105° |
| 2026-05-05 17:45 | 41.67715 | 32.20521 | 33149 ft | 493 kts | 106° |
| 2026-05-05 17:46 | 41.65284 | 32.29106 | 33150 ft | 492 kts | 105° |
| 2026-05-05 17:46 | 41.62892 | 32.37718 | 33157 ft | 493 kts | 105° |
| 2026-05-05 17:47 | 41.60492 | 32.46279 | 33161 ft | 493 kts | 105° |
| 2026-05-05 17:47 | 41.58057 | 32.54848 | 33145 ft | 493 kts | 105° |
| 2026-05-05 17:48 | 41.55626 | 32.63491 | 33152 ft | 494 kts | 105° |
| 2026-05-05 17:48 | 41.53153 | 32.72018 | 33121 ft | 495 kts | 106° |
| 2026-05-05 17:49 | 41.50675 | 32.80598 | 33113 ft | 494 kts | 106° |
| 2026-05-05 17:49 | 41.48206 | 32.89219 | 33090 ft | 494 kts | 106° |
| 2026-05-05 17:50 | 41.45668 | 32.97666 | 33084 ft | 496 kts | 108° |
| 2026-05-05 17:50 | 41.42567 | 33.05924 | 33050 ft | 500 kts | 114° |
| 2026-05-05 17:51 | 41.39185 | 33.13997 | 33050 ft | 501 kts | 114° |
| 2026-05-05 17:51 | 41.35831 | 33.22095 | 33024 ft | 500 kts | 114° |
| 2026-05-05 17:52 | 41.32529 | 33.30232 | 33045 ft | 501 kts | 113° |
| 2026-05-05 17:52 | 41.29232 | 33.38473 | 33031 ft | 502 kts | 113° |
| 2026-05-05 17:53 | 41.25967 | 33.46761 | 33027 ft | 502 kts | 113° |
| 2026-05-05 17:53 | 41.22665 | 33.54987 | 33037 ft | 504 kts | 113° |
| 2026-05-05 17:54 | 41.19328 | 33.63209 | 33002 ft | 502 kts | 113° |
| 2026-05-05 17:54 | 41.16011 | 33.71416 | 33053 ft | 506 kts | 114° |
| 2026-05-05 17:55 | 41.12708 | 33.79612 | 32983 ft | 505 kts | 114° |
| 2026-05-05 17:55 | 41.09381 | 33.87895 | 33018 ft | 506 kts | 114° |
| 2026-05-05 17:56 | 41.06088 | 33.96098 | 33018 ft | 504 kts | 114° |
| 2026-05-05 17:56 | 41.02803 | 34.04313 | 33057 ft | 507 kts | 114° |
| 2026-05-05 17:57 | 40.99478 | 34.12618 | 33006 ft | 507 kts | 114° |
| 2026-05-05 17:57 | 40.96187 | 34.20873 | 33028 ft | 507 kts | 114° |
| 2026-05-05 17:58 | 40.92870 | 34.29202 | 33016 ft | 506 kts | 114° |
| 2026-05-05 17:58 | 40.89607 | 34.37405 | 32994 ft | 506 kts | 114° |
| 2026-05-05 17:59 | 40.86245 | 34.45634 | 33009 ft | 507 kts | 115° |
| 2026-05-05 17:59 | 40.82878 | 34.53751 | 33010 ft | 505 kts | 115° |
| 2026-05-05 18:00 | 40.79522 | 34.61969 | 33020 ft | 509 kts | 115° |
| 2026-05-05 18:00 | 40.76164 | 34.70166 | 33023 ft | 507 kts | 116° |
| 2026-05-05 18:01 | 40.72781 | 34.78304 | 33033 ft | 508 kts | 117° |
| 2026-05-05 18:01 | 40.69257 | 34.86304 | 33024 ft | 506 kts | 118° |
| 2026-05-05 18:02 | 40.65688 | 34.94389 | 33039 ft | 508 kts | 118° |
| 2026-05-05 18:02 | 40.62181 | 35.02410 | 33009 ft | 507 kts | 118° |
| 2026-05-05 18:03 | 40.58658 | 35.10467 | 33036 ft | 509 kts | 118° |
| 2026-05-05 18:03 | 40.55124 | 35.18547 | 33032 ft | 509 kts | 118° |
| 2026-05-05 18:04 | 40.51599 | 35.26642 | 33025 ft | 508 kts | 118° |
| 2026-05-05 18:04 | 40.48186 | 35.34484 | 33038 ft | 508 kts | 118° |
| 2026-05-05 18:05 | 40.44692 | 35.42521 | 33044 ft | 509 kts | 118° |
| 2026-05-05 18:05 | 40.41187 | 35.50603 | 33053 ft | 509 kts | 118° |
| 2026-05-05 18:06 | 40.37686 | 35.58692 | 33038 ft | 508 kts | 118° |
| 2026-05-05 18:06 | 40.34206 | 35.66734 | 33051 ft | 509 kts | 118° |
| 2026-05-05 18:07 | 40.30682 | 35.74792 | 33032 ft | 508 kts | 120° |
| 2026-05-05 18:07 | 40.27065 | 35.82727 | 33033 ft | 509 kts | 120° |
| 2026-05-05 18:08 | 40.23432 | 35.90706 | 33032 ft | 507 kts | 120° |
| 2026-05-05 18:08 | 40.19858 | 35.98622 | 33035 ft | 507 kts | 120° |
| 2026-05-05 18:09 | 40.16269 | 36.06589 | 33037 ft | 507 kts | 120° |
| 2026-05-05 18:09 | 40.12683 | 36.14550 | 33039 ft | 509 kts | 120° |
| 2026-05-05 18:10 | 40.09082 | 36.22564 | 33035 ft | 510 kts | 120° |
| 2026-05-05 18:10 | 40.05492 | 36.30573 | 33031 ft | 509 kts | 120° |
| 2026-05-05 18:11 | 40.01934 | 36.38506 | 33026 ft | 507 kts | 120° |
| 2026-05-05 18:11 | 39.98364 | 36.46490 | 33024 ft | 507 kts | 120° |
| 2026-05-05 18:12 | 39.94814 | 36.54441 | 33029 ft | 507 kts | 120° |
| 2026-05-05 18:12 | 39.91287 | 36.62352 | 33028 ft | 506 kts | 120° |
| 2026-05-05 18:13 | 39.87717 | 36.70221 | 33023 ft | 504 kts | 122° |
| 2026-05-05 18:13 | 39.84090 | 36.78059 | 33033 ft | 503 kts | 121° |
| 2026-05-05 18:14 | 39.80513 | 36.85914 | 33030 ft | 502 kts | 121° |
| 2026-05-05 18:14 | 39.76994 | 36.93677 | 33035 ft | 503 kts | 121° |
| 2026-05-05 18:15 | 39.73466 | 37.01526 | 33030 ft | 502 kts | 121° |
| 2026-05-05 18:15 | 39.69915 | 37.09356 | 33036 ft | 502 kts | 121° |
| 2026-05-05 18:16 | 39.66393 | 37.17197 | 33042 ft | 502 kts | 121° |
| 2026-05-05 18:16 | 39.62889 | 37.25007 | 33040 ft | 502 kts | 121° |
| 2026-05-05 18:17 | 39.59357 | 37.32866 | 33041 ft | 501 kts | 121° |
| 2026-05-05 18:17 | 39.55852 | 37.40633 | 33036 ft | 501 kts | 121° |
| 2026-05-05 18:18 | 39.52283 | 37.48394 | 33035 ft | 501 kts | 121° |
| 2026-05-05 18:18 | 39.48754 | 37.56183 | 33042 ft | 501 kts | 121° |
| 2026-05-05 18:19 | 39.45200 | 37.64016 | 33041 ft | 499 kts | 121° |
| 2026-05-05 18:19 | 39.41626 | 37.71688 | 33035 ft | 498 kts | 122° |
| 2026-05-05 18:20 | 39.38016 | 37.79342 | 33047 ft | 499 kts | 122° |
| 2026-05-05 18:20 | 39.34458 | 37.86931 | 33042 ft | 497 kts | 122° |
| 2026-05-05 18:21 | 39.30882 | 37.94589 | 33041 ft | 497 kts | 122° |
| 2026-05-05 18:21 | 39.27315 | 38.02230 | 33046 ft | 497 kts | 122° |
| 2026-05-05 18:22 | 39.23735 | 38.09914 | 33046 ft | 497 kts | 122° |
| 2026-05-05 18:22 | 39.20170 | 38.17580 | 33042 ft | 498 kts | 122° |
| 2026-05-05 18:23 | 39.16620 | 38.25221 | 33054 ft | 498 kts | 122° |
| 2026-05-05 18:23 | 39.13060 | 38.32895 | 33059 ft | 498 kts | 122° |
| 2026-05-05 18:24 | 39.09506 | 38.40566 | 33053 ft | 496 kts | 122° |
| 2026-05-05 18:24 | 39.05942 | 38.48269 | 33049 ft | 496 kts | 122° |
| 2026-05-05 18:25 | 39.02422 | 38.55888 | 33048 ft | 496 kts | 122° |
| 2026-05-05 18:25 | 38.98815 | 38.63493 | 33048 ft | 497 kts | 123° |
| 2026-05-05 18:26 | 38.95208 | 38.71016 | 33046 ft | 497 kts | 123° |
| 2026-05-05 18:26 | 38.91609 | 38.78627 | 33037 ft | 498 kts | 123° |
| 2026-05-05 18:27 | 38.88014 | 38.86195 | 33035 ft | 498 kts | 123° |
| 2026-05-05 18:27 | 38.84400 | 38.93809 | 33052 ft | 497 kts | 123° |
| 2026-05-05 18:28 | 38.78986 | 39.05161 | 33036 ft | 496 kts | 123° |
| 2026-05-05 18:28 | 38.75377 | 39.12808 | 33039 ft | 498 kts | 123° |
| 2026-05-05 18:29 | 38.71872 | 39.20496 | 33021 ft | 499 kts | 120° |
| 2026-05-05 18:29 | 38.69033 | 39.28607 | 33030 ft | 502 kts | 113° |
| 2026-05-05 18:30 | 38.66614 | 39.36979 | 33042 ft | 503 kts | 112° |
| 2026-05-05 18:30 | 38.64161 | 39.45366 | 33009 ft | 502 kts | 113° |
| 2026-05-05 18:31 | 38.61706 | 39.53715 | 32999 ft | 503 kts | 113° |
| 2026-05-05 18:31 | 38.59227 | 39.62108 | 33003 ft | 502 kts | 113° |
| 2026-05-05 18:32 | 38.56768 | 39.70398 | 32986 ft | 502 kts | 114° |
| 2026-05-05 18:32 | 38.54290 | 39.78764 | 33000 ft | 502 kts | 114° |
| 2026-05-05 18:33 | 38.51824 | 39.87117 | 32987 ft | 503 kts | 114° |
| 2026-05-05 18:33 | 38.49376 | 39.95430 | 32994 ft | 504 kts | 114° |
| 2026-05-05 18:34 | 38.46919 | 40.03811 | 32977 ft | 504 kts | 114° |
| 2026-05-05 18:34 | 38.44475 | 40.12186 | 32989 ft | 503 kts | 114° |
| 2026-05-05 18:35 | 38.42031 | 40.20567 | 32989 ft | 505 kts | 114° |
| 2026-05-05 18:35 | 38.39600 | 40.28932 | 32989 ft | 505 kts | 114° |
| 2026-05-05 18:36 | 38.37172 | 40.37323 | 32988 ft | 505 kts | 114° |
| 2026-05-05 18:36 | 38.34740 | 40.45723 | 32985 ft | 505 kts | 114° |
| 2026-05-05 18:37 | 38.32313 | 40.54117 | 32975 ft | 506 kts | 115° |
| 2026-05-05 18:37 | 38.29780 | 40.62503 | 32987 ft | 506 kts | 115° |
| 2026-05-05 18:38 | 38.27258 | 40.70881 | 32973 ft | 507 kts | 115° |
| 2026-05-05 18:38 | 38.24772 | 40.79260 | 32975 ft | 507 kts | 116° |
| 2026-05-05 18:39 | 38.22189 | 40.87650 | 32966 ft | 508 kts | 117° |
| 2026-05-05 18:39 | 38.19542 | 40.95968 | 32975 ft | 509 kts | 117° |
| 2026-05-05 18:40 | 38.16970 | 41.04298 | 32968 ft | 509 kts | 116° |
| 2026-05-05 18:40 | 38.14405 | 41.12659 | 32968 ft | 509 kts | 117° |
| 2026-05-05 18:41 | 38.11791 | 41.20968 | 32966 ft | 506 kts | 117° |
| 2026-05-05 18:41 | 38.09181 | 41.29333 | 32974 ft | 509 kts | 117° |
| 2026-05-05 18:42 | 38.06634 | 41.37717 | 32968 ft | 510 kts | 116° |
| 2026-05-05 18:42 | 38.04098 | 41.46091 | 32977 ft | 511 kts | 116° |
| 2026-05-05 18:43 | 38.01532 | 41.54528 | 32977 ft | 511 kts | 117° |
| 2026-05-05 18:43 | 37.98885 | 41.62870 | 32974 ft | 511 kts | 117° |
| 2026-05-05 18:44 | 37.96278 | 41.71176 | 32960 ft | 509 kts | 117° |
| 2026-05-05 18:44 | 37.93720 | 41.79548 | 32971 ft | 509 kts | 117° |
| 2026-05-05 18:45 | 37.91467 | 41.88116 | 32963 ft | 518 kts | 109° |
| 2026-05-05 18:45 | 37.90471 | 41.97173 | 33005 ft | 525 kts | 99° |
| 2026-05-05 18:46 | 37.89937 | 42.06417 | 32998 ft | 526 kts | 99° |
| 2026-05-05 18:46 | 37.89353 | 42.15646 | 33003 ft | 527 kts | 100° |
| 2026-05-05 18:47 | 37.88686 | 42.24835 | 33011 ft | 524 kts | 101° |
| 2026-05-05 18:47 | 37.88028 | 42.33975 | 33006 ft | 523 kts | 101° |
| 2026-05-05 18:48 | 37.87394 | 42.43181 | 33037 ft | 526 kts | 100° |
| 2026-05-05 18:48 | 37.86792 | 42.52370 | 33013 ft | 524 kts | 100° |
| 2026-05-05 18:49 | 37.86105 | 42.61594 | 32994 ft | 521 kts | 105° |
| 2026-05-05 18:49 | 37.84010 | 42.70142 | 33035 ft | 502 kts | 124° |
| 2026-05-05 18:50 | 37.80483 | 42.77635 | 33075 ft | 496 kts | 130° |
| 2026-05-05 18:50 | 37.76751 | 42.84975 | 33018 ft | 494 kts | 129° |
| 2026-05-05 18:51 | 37.73130 | 42.92346 | 33026 ft | 497 kts | 129° |
| 2026-05-05 18:51 | 37.69519 | 42.99810 | 33034 ft | 495 kts | 129° |
| 2026-05-05 18:52 | 37.65906 | 43.07209 | 33032 ft | 497 kts | 129° |
| 2026-05-05 18:52 | 37.62310 | 43.14610 | 33032 ft | 497 kts | 129° |
| 2026-05-05 18:53 | 37.58702 | 43.22075 | 33029 ft | 497 kts | 129° |
| 2026-05-05 18:53 | 37.55089 | 43.29518 | 33032 ft | 499 kts | 129° |
| 2026-05-05 18:54 | 37.51473 | 43.36998 | 33029 ft | 498 kts | 129° |
| 2026-05-05 18:54 | 37.47865 | 43.44472 | 33027 ft | 500 kts | 129° |
| 2026-05-05 18:55 | 37.44246 | 43.51971 | 33036 ft | 501 kts | 128° |
| 2026-05-05 18:55 | 37.40640 | 43.59472 | 33038 ft | 499 kts | 129° |
| 2026-05-05 18:56 | 37.37002 | 43.66930 | 33041 ft | 501 kts | 130° |
| 2026-05-05 18:56 | 37.33318 | 43.74329 | 33021 ft | 500 kts | 130° |
| 2026-05-05 18:57 | 37.29643 | 43.81819 | 33048 ft | 502 kts | 129° |
| 2026-05-05 18:57 | 37.25699 | 43.88953 | 33012 ft | 487 kts | 140° |
| 2026-05-05 18:58 | 37.20641 | 43.94420 | 33075 ft | 473 kts | 156° |
| 2026-05-05 18:58 | 37.14870 | 43.97868 | 33037 ft | 454 kts | 167° |
| 2026-05-05 18:59 | 37.08896 | 44.00517 | 33051 ft | 458 kts | 168° |
| 2026-05-05 18:59 | 37.02902 | 44.03253 | 32998 ft | 456 kts | 167° |
| 2026-05-05 19:00 | 36.96936 | 44.06041 | 33023 ft | 458 kts | 167° |
| 2026-05-05 19:00 | 36.90932 | 44.08845 | 32996 ft | 460 kts | 167° |
| 2026-05-05 19:01 | 36.84932 | 44.11636 | 33039 ft | 461 kts | 167° |
| 2026-05-05 19:01 | 36.78933 | 44.14417 | 33002 ft | 458 kts | 167° |
| 2026-05-05 19:02 | 36.72921 | 44.17091 | 33013 ft | 455 kts | 169° |
| 2026-05-05 19:02 | 36.66904 | 44.19666 | 33005 ft | 458 kts | 168° |
| 2026-05-05 19:03 | 36.60886 | 44.22363 | 32993 ft | 457 kts | 168° |
| 2026-05-05 19:03 | 36.54903 | 44.25105 | 33003 ft | 457 kts | 168° |
| 2026-05-05 19:04 | 36.48896 | 44.27848 | 32990 ft | 458 kts | 168° |
| 2026-05-05 19:04 | 36.42886 | 44.30590 | 33003 ft | 459 kts | 168° |
| 2026-05-05 19:05 | 36.36896 | 44.33334 | 33001 ft | 461 kts | 168° |
| 2026-05-05 19:05 | 36.30856 | 44.36093 | 32988 ft | 459 kts | 168° |
| 2026-05-05 19:06 | 36.24830 | 44.38850 | 33007 ft | 461 kts | 168° |
| 2026-05-05 19:06 | 36.18811 | 44.41602 | 32994 ft | 459 kts | 168° |
| 2026-05-05 19:07 | 36.12815 | 44.44348 | 32983 ft | 459 kts | 169° |
| 2026-05-05 19:07 | 36.06820 | 44.47089 | 32976 ft | 459 kts | 169° |
| 2026-05-05 19:08 | 36.00807 | 44.49836 | 32969 ft | 460 kts | 169° |
| 2026-05-05 19:08 | 35.94759 | 44.52606 | 32967 ft | 462 kts | 169° |
| 2026-05-05 19:09 | 35.88728 | 44.55297 | 32964 ft | 460 kts | 170° |
| 2026-05-05 19:09 | 35.82714 | 44.57975 | 32989 ft | 461 kts | 169° |
| 2026-05-05 19:10 | 35.76674 | 44.60691 | 32992 ft | 461 kts | 169° |
| 2026-05-05 19:10 | 35.70630 | 44.63396 | 32969 ft | 461 kts | 170° |
| 2026-05-05 19:11 | 35.64587 | 44.66093 | 32968 ft | 461 kts | 170° |
| 2026-05-05 19:11 | 35.58538 | 44.68807 | 32957 ft | 461 kts | 170° |
| 2026-05-05 19:12 | 35.52486 | 44.71516 | 32967 ft | 464 kts | 171° |
| 2026-05-05 19:12 | 35.46455 | 44.74220 | 32953 ft | 462 kts | 171° |
| 2026-05-05 19:13 | 35.40419 | 44.76918 | 32982 ft | 462 kts | 171° |
| 2026-05-05 19:13 | 35.34328 | 44.79647 | 32957 ft | 464 kts | 171° |
| 2026-05-05 19:14 | 35.28253 | 44.82372 | 32973 ft | 463 kts | 171° |
| 2026-05-05 19:14 | 35.22181 | 44.85090 | 32942 ft | 463 kts | 171° |
| 2026-05-05 19:15 | 35.16130 | 44.87796 | 32956 ft | 464 kts | 171° |
| 2026-05-05 19:15 | 35.10035 | 44.90466 | 32946 ft | 462 kts | 171° |
| 2026-05-05 19:16 | 35.03955 | 44.93127 | 32953 ft | 464 kts | 171° |
| 2026-05-05 19:16 | 34.97878 | 44.95812 | 32942 ft | 463 kts | 171° |
| 2026-05-05 19:17 | 34.91793 | 44.98479 | 32943 ft | 466 kts | 171° |
| 2026-05-05 19:17 | 34.85674 | 45.01168 | 32964 ft | 466 kts | 171° |
| 2026-05-05 19:18 | 34.79523 | 45.03876 | 32970 ft | 467 kts | 171° |
| 2026-05-05 19:18 | 34.73430 | 45.06551 | 32941 ft | 468 kts | 171° |
| 2026-05-05 19:19 | 34.67294 | 45.09251 | 32941 ft | 469 kts | 171° |
| 2026-05-05 19:19 | 34.61107 | 45.11971 | 32934 ft | 470 kts | 171° |
| 2026-05-05 19:20 | 34.54964 | 45.14665 | 32924 ft | 469 kts | 172° |
| 2026-05-05 19:20 | 34.48737 | 45.16662 | 32922 ft | 454 kts | 181° |
| 2026-05-05 19:21 | 34.42516 | 45.17339 | 32945 ft | 446 kts | 186° |
| 2026-05-05 19:21 | 34.36295 | 45.17760 | 32926 ft | 446 kts | 186° |
| 2026-05-05 19:22 | 34.30064 | 45.18200 | 32916 ft | 446 kts | 186° |
| 2026-05-05 19:22 | 34.23837 | 45.18638 | 32902 ft | 448 kts | 186° |
| 2026-05-05 19:23 | 34.17594 | 45.19075 | 32927 ft | 450 kts | 186° |
| 2026-05-05 19:23 | 34.11325 | 45.19506 | 32907 ft | 447 kts | 186° |
| 2026-05-05 19:24 | 34.05076 | 45.19919 | 32919 ft | 448 kts | 186° |
| 2026-05-05 19:24 | 33.98854 | 45.20339 | 32904 ft | 450 kts | 186° |
| 2026-05-05 19:25 | 33.92583 | 45.20762 | 32906 ft | 450 kts | 186° |
| 2026-05-05 19:25 | 33.86294 | 45.21185 | 32901 ft | 450 kts | 186° |
| 2026-05-05 19:26 | 33.80014 | 45.21604 | 32917 ft | 451 kts | 186° |
| 2026-05-05 19:26 | 33.73701 | 45.22033 | 32875 ft | 450 kts | 186° |
| 2026-05-05 19:27 | 33.67391 | 45.22454 | 32897 ft | 453 kts | 186° |
| 2026-05-05 19:27 | 33.61111 | 45.22879 | 32874 ft | 451 kts | 186° |
| 2026-05-05 19:28 | 33.57968 | 45.23090 | 33067 ft | 454 kts | 186° |
| 2026-05-05 19:28 | 33.54787 | 45.23301 | 33449 ft | 454 kts | 186° |
| 2026-05-05 19:28 | 33.51664 | 45.23505 | 33889 ft | 454 kts | 186° |
| 2026-05-05 19:28 | 33.48509 | 45.23718 | 34337 ft | 452 kts | 186° |
| 2026-05-05 19:29 | 33.45368 | 45.23927 | 34768 ft | 451 kts | 186° |
| 2026-05-05 19:29 | 33.42241 | 45.24130 | 34851 ft | 454 kts | 186° |
| 2026-05-05 19:29 | 33.35961 | 45.24646 | 34804 ft | 449 kts | 181° |
| 2026-05-05 19:30 | 33.32866 | 45.25378 | 34869 ft | 461 kts | 175° |
| 2026-05-05 19:30 | 33.29765 | 45.26595 | 34897 ft | 478 kts | 168° |
| 2026-05-05 19:30 | 33.26743 | 45.28319 | 34888 ft | 489 kts | 160° |
| 2026-05-05 19:30 | 33.23843 | 45.30610 | 34860 ft | 500 kts | 153° |
| 2026-05-05 19:31 | 33.18358 | 45.35864 | 34885 ft | 507 kts | 151° |
| 2026-05-05 19:31 | 33.12888 | 45.41135 | 34843 ft | 501 kts | 152° |
| 2026-05-05 19:32 | 33.07396 | 45.46272 | 34843 ft | 502 kts | 152° |
| 2026-05-05 19:32 | 33.01889 | 45.51416 | 34836 ft | 502 kts | 152° |
| 2026-05-05 19:33 | 32.96361 | 45.56601 | 34838 ft | 503 kts | 152° |
| 2026-05-05 19:33 | 32.90867 | 45.61771 | 34842 ft | 504 kts | 151° |
| 2026-05-05 19:34 | 32.85365 | 45.66941 | 34850 ft | 503 kts | 152° |
| 2026-05-05 19:35 | 32.76967 | 45.74450 | 34841 ft | 502 kts | 154° |
| 2026-05-05 19:35 | 32.71326 | 45.79472 | 34831 ft | 505 kts | 153° |
| 2026-05-05 19:36 | 32.65780 | 45.84565 | 34825 ft | 505 kts | 152° |
| 2026-05-05 19:36 | 32.60199 | 45.89740 | 34839 ft | 508 kts | 152° |
| 2026-05-05 19:37 | 32.54638 | 45.94887 | 34831 ft | 506 kts | 152° |
| 2026-05-05 19:37 | 32.49077 | 46.00031 | 34825 ft | 507 kts | 152° |
| 2026-05-05 19:38 | 32.43497 | 46.05212 | 34847 ft | 509 kts | 152° |
| 2026-05-05 19:38 | 32.37938 | 46.10377 | 34825 ft | 506 kts | 152° |
| 2026-05-05 19:39 | 32.32371 | 46.15528 | 34839 ft | 508 kts | 152° |
| 2026-05-05 19:39 | 32.26795 | 46.20716 | 34840 ft | 506 kts | 152° |
| 2026-05-05 19:40 | 32.21271 | 46.25840 | 34833 ft | 507 kts | 152° |
| 2026-05-05 19:40 | 32.15725 | 46.30993 | 34837 ft | 504 kts | 151° |
| 2026-05-05 19:41 | 32.10173 | 46.36086 | 34832 ft | 508 kts | 152° |
| 2026-05-05 19:41 | 32.04571 | 46.41140 | 34838 ft | 505 kts | 152° |
| 2026-05-05 19:42 | 31.99036 | 46.46179 | 34829 ft | 505 kts | 152° |
| 2026-05-05 19:42 | 31.93424 | 46.51281 | 34841 ft | 507 kts | 152° |
| 2026-05-05 19:43 | 31.87836 | 46.56364 | 34842 ft | 507 kts | 152° |
| 2026-05-05 19:43 | 31.82257 | 46.61436 | 34853 ft | 508 kts | 152° |
| 2026-05-05 19:44 | 31.76643 | 46.66546 | 34838 ft | 508 kts | 152° |
| 2026-05-05 19:44 | 31.71061 | 46.71631 | 34810 ft | 505 kts | 152° |
| 2026-05-05 19:45 | 31.65468 | 46.76716 | 34811 ft | 508 kts | 152° |
| 2026-05-05 19:45 | 31.59908 | 46.81791 | 34808 ft | 506 kts | 152° |
| 2026-05-05 19:46 | 31.54341 | 46.86863 | 34794 ft | 505 kts | 152° |
| 2026-05-05 19:46 | 31.48743 | 46.91957 | 34795 ft | 508 kts | 152° |
| 2026-05-05 19:47 | 31.43135 | 46.96990 | 34790 ft | 508 kts | 153° |
| 2026-05-05 19:47 | 31.37514 | 47.01974 | 34790 ft | 510 kts | 152° |
| 2026-05-05 19:48 | 31.31880 | 47.07027 | 34787 ft | 507 kts | 152° |
| 2026-05-05 19:48 | 31.26215 | 47.12083 | 34796 ft | 507 kts | 152° |
| 2026-05-05 19:49 | 31.20636 | 47.17064 | 34790 ft | 507 kts | 152° |
| 2026-05-05 19:49 | 31.14976 | 47.22129 | 34792 ft | 509 kts | 152° |
| 2026-05-05 19:50 | 31.09386 | 47.27129 | 34781 ft | 508 kts | 152° |
| 2026-05-05 19:50 | 31.03757 | 47.32164 | 34774 ft | 507 kts | 152° |
| 2026-05-05 19:51 | 30.98142 | 47.37190 | 34777 ft | 509 kts | 152° |
| 2026-05-05 19:51 | 30.92496 | 47.42247 | 34771 ft | 510 kts | 152° |
| 2026-05-05 19:52 | 30.86857 | 47.47298 | 34763 ft | 510 kts | 151° |
| 2026-05-05 19:52 | 30.81370 | 47.52597 | 34762 ft | 518 kts | 147° |
| 2026-05-05 19:53 | 30.76056 | 47.58193 | 34782 ft | 516 kts | 147° |
| 2026-05-05 19:53 | 30.70662 | 47.63792 | 34768 ft | 516 kts | 148° |
| 2026-05-05 19:54 | 30.65293 | 47.69320 | 34733 ft | 517 kts | 148° |
| 2026-05-05 19:54 | 30.59909 | 47.74889 | 34726 ft | 518 kts | 148° |
| 2026-05-05 19:55 | 30.54523 | 47.80482 | 34725 ft | 519 kts | 148° |
| 2026-05-05 19:55 | 30.49158 | 47.86041 | 34734 ft | 518 kts | 148° |
| 2026-05-05 19:56 | 30.43773 | 47.91620 | 34722 ft | 520 kts | 148° |
| 2026-05-05 19:56 | 30.38329 | 47.97279 | 34731 ft | 521 kts | 148° |
| 2026-05-05 19:57 | 30.32966 | 48.02847 | 34714 ft | 518 kts | 148° |
| 2026-05-05 19:57 | 30.27576 | 48.08439 | 34723 ft | 520 kts | 148° |
| 2026-05-05 19:58 | 30.22163 | 48.14072 | 34720 ft | 520 kts | 147° |
| 2026-05-05 19:58 | 30.16796 | 48.19641 | 34718 ft | 522 kts | 148° |
| 2026-05-05 19:59 | 30.11334 | 48.25201 | 34708 ft | 520 kts | 148° |
| 2026-05-05 19:59 | 30.05890 | 48.30769 | 34732 ft | 524 kts | 147° |
| 2026-05-05 20:00 | 30.00454 | 48.36369 | 34717 ft | 522 kts | 148° |
| 2026-05-05 20:00 | 29.94997 | 48.41933 | 34720 ft | 524 kts | 148° |
| 2026-05-05 20:01 | 29.89475 | 48.47457 | 34701 ft | 520 kts | 152° |
| 2026-05-05 20:01 | 29.83497 | 48.51896 | 34709 ft | 504 kts | 162° |
| 2026-05-05 20:02 | 29.77238 | 48.55487 | 34744 ft | 503 kts | 163° |
| 2026-05-05 20:02 | 29.70961 | 48.59088 | 34695 ft | 501 kts | 163° |
| 2026-05-05 20:03 | 29.64770 | 48.62681 | 34698 ft | 500 kts | 163° |
| 2026-05-05 20:03 | 29.58489 | 48.66324 | 34686 ft | 504 kts | 163° |
| 2026-05-05 20:04 | 29.52237 | 48.69952 | 34639 ft | 501 kts | 163° |
| 2026-05-05 20:04 | 29.46015 | 48.73544 | 34651 ft | 505 kts | 163° |
| 2026-05-05 20:05 | 29.39726 | 48.77159 | 34635 ft | 501 kts | 164° |
| 2026-05-05 20:05 | 29.33461 | 48.80577 | 34658 ft | 501 kts | 164° |
| 2026-05-05 20:06 | 29.27185 | 48.84155 | 34644 ft | 505 kts | 162° |
| 2026-05-05 20:06 | 29.20910 | 48.87894 | 34646 ft | 505 kts | 162° |
| 2026-05-05 20:07 | 29.14790 | 48.91970 | 34624 ft | 512 kts | 155° |
| 2026-05-05 20:07 | 29.09104 | 48.97113 | 34668 ft | 527 kts | 148° |
| 2026-05-05 20:08 | 29.03528 | 49.02615 | 34655 ft | 524 kts | 148° |
| 2026-05-05 20:08 | 28.97975 | 49.08004 | 34640 ft | 525 kts | 149° |
| 2026-05-05 20:09 | 28.92388 | 49.13406 | 34640 ft | 526 kts | 148° |
| 2026-05-05 20:09 | 28.86811 | 49.18823 | 34636 ft | 525 kts | 149° |
| 2026-05-05 20:10 | 28.81247 | 49.24248 | 34644 ft | 528 kts | 147° |
| 2026-05-05 20:10 | 28.75785 | 49.29806 | 34629 ft | 527 kts | 146° |
| 2026-05-05 20:11 | 28.70341 | 49.35482 | 34640 ft | 528 kts | 146° |
| 2026-05-05 20:11 | 28.64939 | 49.41171 | 34629 ft | 527 kts | 146° |
| 2026-05-05 20:12 | 28.59933 | 49.47345 | 34612 ft | 545 kts | 134° |
| 2026-05-05 20:12 | 28.55804 | 49.54680 | 34683 ft | 552 kts | 128° |
| 2026-05-05 20:13 | 28.51900 | 49.62174 | 34618 ft | 549 kts | 128° |
| 2026-05-05 20:13 | 28.47942 | 49.69589 | 34595 ft | 547 kts | 129° |
| 2026-05-05 20:14 | 28.43950 | 49.76964 | 34554 ft | 547 kts | 132° |
| 2026-05-05 20:14 | 28.41678 | 49.80367 | 34561 ft | 536 kts | 140° |
| 2026-05-05 20:14 | 28.39058 | 49.83318 | 34609 ft | 526 kts | 149° |
| 2026-05-05 20:14 | 28.36126 | 49.85813 | 34627 ft | 515 kts | 155° |
| 2026-05-05 20:15 | 28.33116 | 49.88029 | 34642 ft | 513 kts | 156° |
| 2026-05-05 20:15 | 28.27097 | 49.92351 | 34601 ft | 513 kts | 156° |
| 2026-05-05 20:16 | 28.21105 | 49.96822 | 34587 ft | 514 kts | 155° |
| 2026-05-05 20:16 | 28.15131 | 50.01356 | 34579 ft | 512 kts | 155° |
| 2026-05-05 20:17 | 28.09178 | 50.05860 | 34574 ft | 515 kts | 155° |
| 2026-05-05 20:17 | 28.03188 | 50.10377 | 34585 ft | 515 kts | 155° |
| 2026-05-05 20:18 | 27.97203 | 50.14906 | 34600 ft | 516 kts | 154° |
| 2026-05-05 20:18 | 27.91353 | 50.19326 | 34582 ft | 512 kts | 154° |
| 2026-05-05 20:19 | 27.85393 | 50.23826 | 34605 ft | 514 kts | 154° |
| 2026-05-05 20:19 | 27.79444 | 50.28330 | 34606 ft | 516 kts | 154° |
| 2026-05-05 20:20 | 27.73471 | 50.32852 | 34575 ft | 514 kts | 154° |
| 2026-05-05 20:20 | 27.67504 | 50.37358 | 34582 ft | 516 kts | 154° |
| 2026-05-05 20:21 | 27.61529 | 50.41833 | 34573 ft | 515 kts | 155° |
| 2026-05-05 20:21 | 27.55551 | 50.46271 | 34561 ft | 515 kts | 154° |
| 2026-05-05 20:22 | 27.49611 | 50.50854 | 34582 ft | 518 kts | 153° |
| 2026-05-05 20:22 | 27.43694 | 50.55550 | 34548 ft | 516 kts | 153° |
| 2026-05-05 20:23 | 27.37728 | 50.59992 | 34571 ft | 513 kts | 154° |
| 2026-05-05 20:23 | 27.31796 | 50.64435 | 34580 ft | 516 kts | 153° |
| 2026-05-05 20:24 | 27.25875 | 50.69014 | 34521 ft | 515 kts | 153° |
| 2026-05-05 20:24 | 27.19956 | 50.73586 | 34587 ft | 519 kts | 153° |
| 2026-05-05 20:25 | 27.14175 | 50.78497 | 34541 ft | 522 kts | 146° |
| 2026-05-05 20:25 | 27.08917 | 50.84216 | 34604 ft | 529 kts | 142° |
| 2026-05-05 20:26 | 27.03757 | 50.90153 | 34544 ft | 531 kts | 141° |
| 2026-05-05 20:26 | 26.98960 | 50.96478 | 34567 ft | 538 kts | 131° |
| 2026-05-05 20:27 | 26.94922 | 51.03563 | 34601 ft | 541 kts | 127° |
| 2026-05-05 20:27 | 26.90993 | 51.10759 | 34557 ft | 542 kts | 128° |
| 2026-05-05 20:28 | 26.87293 | 51.18158 | 34570 ft | 547 kts | 120° |
| 2026-05-05 20:28 | 26.84644 | 51.26105 | 34589 ft | 551 kts | 112° |
| 2026-05-05 20:29 | 26.82223 | 51.34357 | 34609 ft | 558 kts | 113° |
| 2026-05-05 20:29 | 26.79777 | 51.42479 | 34526 ft | 552 kts | 113° |
| 2026-05-05 20:30 | 26.77304 | 51.50628 | 34582 ft | 554 kts | 113° |
| 2026-05-05 20:30 | 26.74847 | 51.58769 | 34548 ft | 553 kts | 112° |
| 2026-05-05 20:31 | 26.72400 | 51.66950 | 34555 ft | 552 kts | 113° |
| 2026-05-05 20:31 | 26.70006 | 51.75028 | 34527 ft | 551 kts | 113° |
| 2026-05-05 20:32 | 26.67533 | 51.83140 | 34559 ft | 551 kts | 113° |
| 2026-05-05 20:32 | 26.65099 | 51.91250 | 34541 ft | 550 kts | 113° |
| 2026-05-05 20:33 | 26.62453 | 51.99269 | 34565 ft | 549 kts | 115° |
| 2026-05-05 20:33 | 26.59745 | 52.07290 | 34554 ft | 549 kts | 115° |
| 2026-05-05 20:34 | 26.57147 | 52.15240 | 34553 ft | 549 kts | 114° |
| 2026-05-05 20:34 | 26.54503 | 52.23315 | 34569 ft | 550 kts | 114° |
| 2026-05-05 20:35 | 26.51865 | 52.31331 | 34555 ft | 549 kts | 114° |
| 2026-05-05 20:35 | 26.49271 | 52.39303 | 34573 ft | 551 kts | 114° |
| 2026-05-05 20:36 | 26.46648 | 52.47345 | 34568 ft | 550 kts | 114° |
| 2026-05-05 20:36 | 26.44031 | 52.55369 | 34570 ft | 550 kts | 114° |
| 2026-05-05 20:37 | 26.41418 | 52.63425 | 34567 ft | 551 kts | 114° |
| 2026-05-05 20:37 | 26.38740 | 52.71430 | 34545 ft | 549 kts | 114° |
| 2026-05-05 20:38 | 26.36102 | 52.79388 | 34556 ft | 550 kts | 114° |
| 2026-05-05 20:38 | 26.33438 | 52.87338 | 34558 ft | 549 kts | 115° |
| 2026-05-05 20:39 | 26.30726 | 52.95277 | 34563 ft | 549 kts | 114° |
| 2026-05-05 20:39 | 26.28055 | 53.03297 | 34565 ft | 549 kts | 114° |
| 2026-05-05 20:40 | 26.25407 | 53.11232 | 34567 ft | 550 kts | 114° |
| 2026-05-05 20:40 | 26.22730 | 53.19217 | 34562 ft | 549 kts | 114° |
| 2026-05-05 20:41 | 26.20087 | 53.27182 | 34558 ft | 550 kts | 113° |
| 2026-05-05 20:41 | 26.18730 | 53.31191 | 34055 ft | 558 kts | 114° |
| 2026-05-05 20:41 | 26.17255 | 53.35206 | 33400 ft | 558 kts | 116° |
| 2026-05-05 20:41 | 26.15667 | 53.39166 | 32846 ft | 557 kts | 118° |
| 2026-05-05 20:42 | 26.14054 | 53.43054 | 32335 ft | 556 kts | 118° |
| 2026-05-05 20:42 | 26.12438 | 53.46953 | 31803 ft | 557 kts | 117° |
| 2026-05-05 20:42 | 26.10816 | 53.50927 | 31234 ft | 558 kts | 117° |
| 2026-05-05 20:42 | 26.09229 | 53.54846 | 30668 ft | 559 kts | 116° |
| 2026-05-05 20:43 | 26.07630 | 53.58796 | 30095 ft | 560 kts | 116° |
| 2026-05-05 20:43 | 26.06082 | 53.62766 | 29484 ft | 560 kts | 115° |
| 2026-05-05 20:43 | 26.04494 | 53.66730 | 28948 ft | 560 kts | 116° |
| 2026-05-05 20:43 | 26.02885 | 53.70631 | 28369 ft | 560 kts | 116° |
| 2026-05-05 20:44 | 26.01263 | 53.74540 | 27791 ft | 560 kts | 116° |
| 2026-05-05 20:44 | 25.99641 | 53.78513 | 27181 ft | 560 kts | 115° |
| 2026-05-05 20:44 | 25.98102 | 53.82441 | 26570 ft | 560 kts | 115° |
| 2026-05-05 20:44 | 25.96553 | 53.86443 | 25940 ft | 560 kts | 115° |
| 2026-05-05 20:45 | 25.93432 | 53.94389 | 24718 ft | 558 kts | 115° |
| 2026-05-05 20:45 | 25.91882 | 53.98304 | 24054 ft | 552 kts | 115° |
| 2026-05-05 20:45 | 25.90294 | 54.02082 | 23472 ft | 534 kts | 117° |
| 2026-05-05 20:46 | 25.88643 | 54.05746 | 23029 ft | 515 kts | 118° |
| 2026-05-05 20:46 | 25.87058 | 54.09208 | 22631 ft | 504 kts | 117° |
| 2026-05-05 20:46 | 25.85479 | 54.12695 | 22219 ft | 505 kts | 117° |
| 2026-05-05 20:46 | 25.83924 | 54.16204 | 21728 ft | 503 kts | 116° |
| 2026-05-05 20:47 | 25.82495 | 54.19675 | 21197 ft | 497 kts | 114° |
| 2026-05-05 20:47 | 25.81198 | 54.23214 | 20582 ft | 490 kts | 110° |
| 2026-05-05 20:47 | 25.80058 | 54.26748 | 19858 ft | 482 kts | 109° |
| 2026-05-05 20:47 | 25.78996 | 54.30211 | 18764 ft | 481 kts | 108° |
| 2026-05-05 20:48 | 25.77930 | 54.33702 | 17991 ft | 471 kts | 108° |
| 2026-05-05 20:48 | 25.76882 | 54.37062 | 17180 ft | 461 kts | 108° |
| 2026-05-05 20:48 | 25.75827 | 54.40413 | 16130 ft | 455 kts | 108° |
| 2026-05-05 20:48 | 25.74804 | 54.43660 | 15124 ft | 447 kts | 108° |
| 2026-05-05 20:49 | 25.73794 | 54.46884 | 14055 ft | 438 kts | 107° |
| 2026-05-05 20:49 | 25.72819 | 54.50027 | 12934 ft | 430 kts | 107° |
| 2026-05-05 20:49 | 25.71870 | 54.53093 | 11845 ft | 419 kts | 107° |
| 2026-05-05 20:49 | 25.70939 | 54.56089 | 11210 ft | 392 kts | 107° |
| 2026-05-05 20:50 | 25.70089 | 54.58817 | 10707 ft | 362 kts | 107° |
| 2026-05-05 20:50 | 25.69300 | 54.61335 | 10249 ft | 334 kts | 107° |
| 2026-05-05 20:50 | 25.68533 | 54.63705 | 9958 ft | 314 kts | 108° |
| 2026-05-05 20:50 | 25.67813 | 54.65914 | 9710 ft | 297 kts | 108° |
| 2026-05-05 20:51 | 25.67139 | 54.68004 | 9594 ft | 283 kts | 108° |
| 2026-05-05 20:51 | 25.66475 | 54.70078 | 9551 ft | 286 kts | 108° |
| 2026-05-05 20:51 | 25.65807 | 54.72156 | 9425 ft | 288 kts | 109° |
| 2026-05-05 20:51 | 25.65145 | 54.74209 | 9129 ft | 277 kts | 108° |
| 2026-05-05 20:52 | 25.64497 | 54.76221 | 8980 ft | 284 kts | 108° |
| 2026-05-05 20:52 | 25.63655 | 54.78247 | 8746 ft | 282 kts | 124° |
| 2026-05-05 20:52 | 25.62460 | 54.79955 | 8241 ft | 281 kts | 129° |
| 2026-05-05 20:52 | 25.61190 | 54.81577 | 8019 ft | 283 kts | 130° |
| 2026-05-05 20:53 | 25.59864 | 54.83252 | 7889 ft | 289 kts | 130° |
| 2026-05-05 20:53 | 25.58557 | 54.84939 | 7869 ft | 289 kts | 129° |
| 2026-05-05 20:53 | 25.57236 | 54.86665 | 7875 ft | 288 kts | 129° |
| 2026-05-05 20:53 | 25.55947 | 54.88357 | 7875 ft | 288 kts | 129° |
| 2026-05-05 20:54 | 25.54651 | 54.90058 | 8730 ft | 292 kts | 129° |
| 2026-05-05 20:54 | 25.53328 | 54.91794 | 9356 ft | 294 kts | 129° |
| 2026-05-05 20:54 | 25.52027 | 54.93500 | 9587 ft | 289 kts | 129° |
| 2026-05-05 20:54 | 25.50714 | 54.95222 | 9741 ft | 292 kts | 129° |
| 2026-05-05 20:55 | 25.49405 | 54.96929 | 9793 ft | 292 kts | 129° |
| 2026-05-05 20:55 | 25.48084 | 54.98654 | 9825 ft | 291 kts | 129° |
| 2026-05-05 20:55 | 25.46785 | 55.00356 | 9834 ft | 291 kts | 130° |
| 2026-05-05 20:55 | 25.45475 | 55.02063 | 9823 ft | 291 kts | 130° |
| 2026-05-05 20:56 | 25.44165 | 55.03767 | 9831 ft | 291 kts | 130° |
| 2026-05-05 20:56 | 25.42855 | 55.05479 | 9842 ft | 291 kts | 129° |
| 2026-05-05 20:56 | 25.41538 | 55.07206 | 9830 ft | 291 kts | 129° |
| 2026-05-05 20:56 | 25.40237 | 55.08913 | 9810 ft | 290 kts | 129° |
| 2026-05-05 20:57 | 25.38923 | 55.10635 | 9831 ft | 291 kts | 129° |
| 2026-05-05 20:57 | 25.37607 | 55.12355 | 9842 ft | 293 kts | 129° |
| 2026-05-05 20:57 | 25.36272 | 55.14100 | 9829 ft | 293 kts | 129° |
| 2026-05-05 20:57 | 25.34962 | 55.15816 | 9823 ft | 293 kts | 129° |
| 2026-05-05 20:58 | 25.33640 | 55.17549 | 9818 ft | 292 kts | 129° |
| 2026-05-05 20:58 | 25.32315 | 55.19284 | 9847 ft | 292 kts | 130° |
| 2026-05-05 20:58 | 25.31002 | 55.21001 | 9860 ft | 293 kts | 130° |
| 2026-05-05 20:58 | 25.29685 | 55.22722 | 9852 ft | 292 kts | 130° |
| 2026-05-05 20:59 | 25.28377 | 55.24433 | 9864 ft | 292 kts | 130° |
| 2026-05-05 20:59 | 25.27054 | 55.26165 | 9867 ft | 293 kts | 130° |
| 2026-05-05 20:59 | 25.25746 | 55.27884 | 9872 ft | 293 kts | 130° |
| 2026-05-05 20:59 | 25.24425 | 55.29615 | 9862 ft | 292 kts | 130° |
| 2026-05-05 21:00 | 25.23112 | 55.31332 | 9869 ft | 291 kts | 129° |
| 2026-05-05 21:00 | 25.21803 | 55.33051 | 9867 ft | 291 kts | 129° |
| 2026-05-05 21:00 | 25.20493 | 55.34771 | 9876 ft | 292 kts | 129° |
| 2026-05-05 21:00 | 25.19188 | 55.36489 | 9880 ft | 291 kts | 129° |
| 2026-05-05 21:01 | 25.17882 | 55.38205 | 9876 ft | 292 kts | 129° |
| 2026-05-05 21:01 | 25.16569 | 55.39924 | 9880 ft | 292 kts | 130° |
| 2026-05-05 21:01 | 25.15241 | 55.41660 | 9883 ft | 293 kts | 130° |
| 2026-05-05 21:01 | 25.13918 | 55.43390 | 9889 ft | 293 kts | 130° |
| 2026-05-05 21:02 | 25.12600 | 55.45116 | 9879 ft | 293 kts | 130° |
| 2026-05-05 21:02 | 25.11329 | 55.46883 | 9873 ft | 293 kts | 127° |
| 2026-05-05 21:02 | 25.10181 | 55.48755 | 9868 ft | 293 kts | 122° |
| 2026-05-05 21:02 | 25.09128 | 55.50661 | 9800 ft | 290 kts | 121° |
| 2026-05-05 21:03 | 25.08072 | 55.52600 | 9116 ft | 294 kts | 122° |
| 2026-05-05 21:03 | 25.07023 | 55.54494 | 8749 ft | 285 kts | 122° |
| 2026-05-05 21:03 | 25.05984 | 55.56348 | 8052 ft | 289 kts | 122° |
| 2026-05-05 21:03 | 25.04940 | 55.58208 | 7769 ft | 277 kts | 122° |
| 2026-05-05 21:04 | 25.03954 | 55.59973 | 7674 ft | 261 kts | 122° |
| 2026-05-05 21:04 | 25.03016 | 55.61653 | 7405 ft | 257 kts | 122° |
| 2026-05-05 21:04 | 25.02129 | 55.63373 | 6779 ft | 264 kts | 110° |
| 2026-05-05 21:04 | 25.01867 | 55.65376 | 6200 ft | 266 kts | 79° |
| 2026-05-05 21:05 | 25.02589 | 55.67204 | 5686 ft | 265 kts | 48° |
| 2026-05-05 21:05 | 25.04039 | 55.68459 | 5104 ft | 267 kts | 29° |
| 2026-05-05 21:05 | 25.05812 | 55.68966 | 4360 ft | 269 kts | 354° |
| 2026-05-05 21:05 | 25.07579 | 55.68322 | 3688 ft | 270 kts | 325° |
| 2026-05-05 21:06 | 25.08875 | 55.66850 | 2964 ft | 275 kts | 303° |
| 2026-05-05 21:06 | 25.09826 | 55.65010 | 2271 ft | 276 kts | 298° |
| 2026-05-05 21:06 | 25.10695 | 55.63168 | 2011 ft | 260 kts | 299° |
| 2026-05-05 21:06 | 25.11530 | 55.61496 | 1957 ft | 237 kts | 301° |
| 2026-05-05 21:07 | 25.12333 | 55.59946 | 1983 ft | 232 kts | 301° |
| 2026-05-05 21:07 | 25.13115 | 55.58445 | 2007 ft | 219 kts | 301° |
| 2026-05-05 21:07 | 25.13880 | 55.57033 | 1892 ft | 205 kts | 303° |
| 2026-05-05 21:07 | 25.14604 | 55.55750 | 1920 ft | 189 kts | 303° |
| 2026-05-05 21:08 | 25.15279 | 55.54536 | 1959 ft | 178 kts | 303° |
| 2026-05-05 21:08 | 25.15916 | 55.53363 | 2009 ft | 179 kts | 303° |
| 2026-05-05 21:08 | 25.16562 | 55.52186 | 2047 ft | 179 kts | 304° |
| 2026-05-05 21:08 | 25.17205 | 55.51031 | 2066 ft | 176 kts | 304° |
| 2026-05-05 21:09 | 25.17851 | 55.49880 | 2004 ft | 176 kts | 304° |
| 2026-05-05 21:09 | 25.18482 | 55.48733 | 1846 ft | 174 kts | 304° |
| 2026-05-05 21:09 | 25.19107 | 55.47568 | 1646 ft | 175 kts | 300° |
| 2026-05-05 21:09 | 25.19709 | 55.46399 | 1427 ft | 174 kts | 304° |
| 2026-05-05 21:10 | 25.20366 | 55.45269 | 1188 ft | 174 kts | 304° |
| 2026-05-05 21:10 | 25.21001 | 55.44139 | 968 ft | 172 kts | 304° |
| 2026-05-05 21:10 | 25.21629 | 55.43016 | 773 ft | 170 kts | 302° |
| 2026-05-05 21:10 | 25.22207 | 55.41936 | 478 ft | 159 kts | 304° |
| 2026-05-05 21:11 | 25.22793 | 55.40941 | 246 ft | 150 kts | 305° |
| 2026-05-05 21:11 | 25.23337 | 55.39937 | 155 ft | 150 kts | 302° |
| 2026-05-05 21:11 | 25.23894 | 55.38969 | 45 ft | 147 kts | 303° |
| 2026-05-05 21:11 | 25.24352 | 55.38122 | 44 ft | 93 kts | 302° |
| 2026-05-05 21:12 | 25.24576 | 55.37687 | 44 ft | 43 kts | 294° |
| 2026-05-05 21:12 | 25.24606 | 55.37426 | 44 ft | 26 kts | 271° |
| 2026-05-05 21:12 | 25.24621 | 55.37281 | 43 ft | 16 kts | 285° |
| 2026-05-05 21:12 | 25.24682 | 55.37159 | 43 ft | 17 kts | 303° |
| 2026-05-05 21:13 | 25.24770 | 55.37000 | 43 ft | 30 kts | 301° |
| 2026-05-05 21:13 | 25.24862 | 55.36781 | 43 ft | 31 kts | 283° |
| 2026-05-05 21:13 | 25.24948 | 55.36557 | 43 ft | 34 kts | 305° |
| 2026-05-05 21:13 | 25.25055 | 55.36368 | 43 ft | 27 kts | 300° |
| 2026-05-05 21:14 | 25.25171 | 55.36159 | 43 ft | 34 kts | 300° |
| 2026-05-05 21:14 | 25.25271 | 55.35978 | 43 ft | 15 kts | 302° |
| 2026-05-05 21:14 | 25.25341 | 55.35852 | 43 ft | 21 kts | 301° |
| 2026-05-05 21:14 | 25.25409 | 55.35728 | 43 ft | 19 kts | 302° |
| 2026-05-05 21:15 | 25.25493 | 55.35578 | 43 ft | 26 kts | 302° |
| 2026-05-05 21:15 | 25.25572 | 55.35438 | 43 ft | 0 kts | 301° |
| 2026-05-05 21:15 | 25.25573 | 55.35438 | 43 ft | 0 kts | 301° |
| 2026-05-05 21:16 | 25.25590 | 55.35406 | 43 ft | 8 kts | 301° |
| 2026-05-05 21:16 | 25.25636 | 55.35319 | 43 ft | 17 kts | 301° |
| 2026-05-05 21:16 | 25.25705 | 55.35193 | 43 ft | 21 kts | 301° |
| 2026-05-05 21:16 | 25.25791 | 55.35055 | 43 ft | 18 kts | 332° |
| 2026-05-05 21:17 | 25.25910 | 55.35112 | 43 ft | 23 kts | 32° |
| 2026-05-05 21:17 | 25.26073 | 55.35216 | 43 ft | 30 kts | 32° |
| 2026-05-05 21:17 | 25.26256 | 55.35343 | 43 ft | 31 kts | 33° |
| 2026-05-05 21:17 | 25.26382 | 55.35427 | 43 ft | 12 kts | 31° |
| 2026-05-05 21:18 | 25.26450 | 55.35472 | 43 ft | 14 kts | 31° |
| 2026-05-05 21:18 | 25.26482 | 55.35525 | 43 ft | 6 kts | 94° |
| 2026-05-05 21:18 | 25.26465 | 55.35567 | 43 ft | 9 kts | 119° |
| 2026-05-05 21:18 | 25.26419 | 55.35658 | 43 ft | 17 kts | 120° |
| 2026-05-05 21:19 | 25.26350 | 55.35780 | 43 ft | 16 kts | 122° |
| 2026-05-05 21:19 | 25.26299 | 55.35875 | 43 ft | 10 kts | 120° |
| 2026-05-05 21:19 | 25.26295 | 55.35882 | 43 ft | 0 kts | 120° |
| 2026-05-05 21:19 | 25.26287 | 55.35897 | 43 ft | 5 kts | 121° |
| 2026-05-05 21:20 | 25.26264 | 55.35936 | 43 ft | 0 kts | 124° |
| 2026-05-05 21:20 | 25.26251 | 55.35960 | 43 ft | 2 kts | 98° |
| 2026-05-05 21:20 | 25.26263 | 55.35984 | 43 ft | 3 kts | 38° |
| 2026-05-05 21:21 | 25.26293 | 55.36005 | 43 ft | 3 kts | 31° |
| 2026-05-05 21:21 | 25.26316 | 55.36020 | 43 ft | 0 kts | 32° |
| 2026-05-05 21:21 | 25.26322 | 55.36024 | 43 ft | 0 kts | 32° |